Hovedside
METAR-TAF:

METAR-TAF

Lufthavner :

Bornholms lufthavn

Rønne, Danmark

breddegrad: 55-04N, lengdegrad: 014-45E, høyde over havet: 16 m

Gjeldene værobservasjon

Denne rapporten ble laget for 23 minutter siden, klokken 02:50 UTC
Vind 14 kt fra Sør-sørøst
Temperatur 4°C
Luftfuktighet 87%
Trykk 984 hPa
Sikt 10 km eller mer

METAR: EKRN 140250Z AUTO 15014KT 9999 // OVC018/// 04/02 Q0984

Tid: 04:13 (03:13 UTC)

Varsel

Denne rapporten ble laget for 9 timer og 44 minutter siden, klokken 17:29 UTC
Varsel gyldig fra 13. klokken 18 UTC til 13. klokken 23 UTC
Vind 15 kt fra Sørøst
Sikt: 9000 m
Brutte skyer i en høyde av 1200 ft
Midlertidig
fra 13. klokken 18 UTC til 13. klokken 23 UTC
Brutte skyer i en høyde av 900 ft

TAF: EKRN 131729Z 1318/1323 13015KT 9000 BKN012 TEMPO 1318/1323 BKN009

Værobservasjoner og værvarsel for over 4000 flyplasser (METAR- og TAF-rapporter).

Tilgjengelige stasjoner er representert av de røde og gule prikkene på kartet.

Hold musepekeren over prikken for å se navnet på stasjonen.

Klikk så for å se værobservasjoner og -varsler.

For å forandre kartet kan du klikke på den grønne knappen med svart kryss for å zoome inn, på den grønne knappen med strek for å zoome ut, eller på de grønne pilene for å se tilstøtende kart.


METAR-TAF: